CPF9 weather

Lake Rosseau/Arthurlie Bay Seaplane Base
Ontario, Canada

Public forecast

Using degrees Celsius for public forecast. Weather courtesy of forecast.io.

Closest aviation weather report (METAR) to Lake Rosseau/Arthurlie Bay Seaplane Base

Closest report is Muskoka Airport, 13.5 nm (25.0 km) SE. Retrieved 2019/10/20 05:00 UTC (44 minutes ago):

CYQA 200500Z AUTO 12005KT 9SM CLR 04/02 A2991 RMK SLP137

Closest aviation forecast (TAF) to Lake Rosseau/Arthurlie Bay Seaplane Base

Forecast is more than 6 hours old.

Closest forecast is Muskoka Airport, 13.5 nm (25.0 km) SE. Retrieved 2019/10/19 20:00 UTC (10 hours ago):

TAF CYQA 191938Z 1920/2002 16007KT P6SM FEW150 RMK FCST BASED ON AUTO OBS NXT FCST WILL BE ISSUED AT 201145Z